Aqua Bob — WD19623 — position and weather

sailwx.info

Track history (hours):
 
Tides and Currents Weather Stations Pressure Air Temp Water Temp Dewpoint Dewpoint Depression Visibility Wind Speed Wind Dir Waves Ship Positions

Aqua Bob

Last reported at 2017-Oct-10 16:54 UTC. Time now 2017-Oct-20 03:30 UTC.
Position N 36°51' W 076°19'.
Warning: this ship's position is 9 days out of date.

Length 16 m.

Type: Sailing vessel. MMSI: 367750540.

Date/timePositionNaut miles runAvg speedWind from/ knotsBaromVisibWave heightAir tempDewpointWater temp
2017-Oct-10 16:54N 36°51' W 076°19'  
2017-Oct-05 14:03N 36°51' W 076°18'0 0.2
2017-Oct-05 14:00N 36°51' W 076°18'11 4.8
2017-Oct-05 11:46N 36°60' W 076°11'3 7.9
2017-Oct-05 11:24N 36°59' W 076°07'3 7.8
2017-Oct-05 10:59N 36°58' W 076°03'19 6.2
2017-Oct-05 07:53N 37°06' W 075°41'2 6.3
2017-Oct-05 07:30N 37°08' W 075°39'6 6.3
2017-Oct-05 06:30N 37°13' W 075°35'3 6.4
2017-Oct-05 06:00N 37°15' W 075°32'7 6.3
2017-Oct-05 04:58N 37°21' W 075°27'8 6.1
2017-Oct-05 03:39N 37°28' W 075°23'9 6.1
2017-Oct-05 02:09N 37°36' W 075°18'1 6.0
2017-Oct-05 01:59N 37°37' W 075°18'3 6.0
2017-Oct-05 01:26N 37°40' W 075°16'3 6.1
2017-Oct-05 00:57N 37°43' W 075°14'3 6.0
2017-Oct-05 00:30N 37°45' W 075°13'3 6.0
2017-Oct-04 23:58N 37°48' W 075°11'3 6.0
2017-Oct-04 23:29N 37°50' W 075°09'3 6.0
2017-Oct-04 22:59N 37°53' W 075°08'5 6.0
2017-Oct-04 22:07N 37°58' W 075°06'1 5.9
2017-Oct-04 22:00N 37°59' W 075°06'6 5.9
2017-Oct-04 21:03N 38°04' W 075°05'  
Track history (hours):
 
Tides and Currents Weather Stations Pressure Air Temp Water Temp Dewpoint Dewpoint Depression Visibility Wind Speed Wind Dir Waves Ship Positions

Aqua Bob

Last reported at 2017-Oct-10 16:54 UTC. Time now 2017-Oct-20 03:30 UTC.
Position N 36°51' W 076°19'.
Warning: this ship's position is 9 days out of date.

Length 16 m.

Type: Sailing vessel. MMSI: 367750540.

Date/timePositionNaut miles runAvg speedWind from/ knotsBaromVisibWave heightAir tempDewpointWater temp
2017-Oct-10 16:54N 36°51' W 076°19'  
2017-Oct-05 14:03N 36°51' W 076°18'0 0.2
2017-Oct-05 14:00N 36°51' W 076°18'11 4.8
2017-Oct-05 11:46N 36°60' W 076°11'3 7.9
2017-Oct-05 11:24N 36°59' W 076°07'3 7.8
2017-Oct-05 10:59N 36°58' W 076°03'19 6.2
2017-Oct-05 07:53N 37°06' W 075°41'2 6.3
2017-Oct-05 07:30N 37°08' W 075°39'6 6.3
2017-Oct-05 06:30N 37°13' W 075°35'3 6.4
2017-Oct-05 06:00N 37°15' W 075°32'7 6.3
2017-Oct-05 04:58N 37°21' W 075°27'8 6.1
2017-Oct-05 03:39N 37°28' W 075°23'9 6.1
2017-Oct-05 02:09N 37°36' W 075°18'1 6.0
2017-Oct-05 01:59N 37°37' W 075°18'3 6.0
2017-Oct-05 01:26N 37°40' W 075°16'3 6.1
2017-Oct-05 00:57N 37°43' W 075°14'3 6.0
2017-Oct-05 00:30N 37°45' W 075°13'3 6.0
2017-Oct-04 23:58N 37°48' W 075°11'3 6.0
2017-Oct-04 23:29N 37°50' W 075°09'3 6.0
2017-Oct-04 22:59N 37°53' W 075°08'5 6.0
2017-Oct-04 22:07N 37°58' W 075°06'1 5.9
2017-Oct-04 22:00N 37°59' W 075°06'6 5.9
2017-Oct-04 21:03N 38°04' W 075°05'  

Dump ship's entire track history